sensor_id;sensor_type;location;lat;lon;timestamp;pressure;altitude;pressure_sealevel;temperature;humidity
54808;BME280;40708;50.364;7.550;2023-01-26T00:00:45;101400.25;;;0.41;100.00
54808;BME280;40708;50.364;7.550;2023-01-26T00:03:10;101402.97;;;0.42;100.00
54808;BME280;40708;50.364;7.550;2023-01-26T00:05:36;101394.75;;;0.51;100.00
54808;BME280;40708;50.364;7.550;2023-01-26T00:08:02;101390.44;;;0.51;100.00
54808;BME280;40708;50.364;7.550;2023-01-26T00:10:27;101385.31;;;0.38;100.00
54808;BME280;40708;50.364;7.550;2023-01-26T00:12:53;101382.69;;;0.38;100.00
54808;BME280;40708;50.364;7.550;2023-01-26T00:15:18;101390.41;;;0.35;100.00
54808;BME280;40708;50.364;7.550;2023-01-26T00:17:43;101395.63;;;0.35;100.00
54808;BME280;40708;50.364;7.550;2023-01-26T00:20:09;101392.84;;;0.32;100.00
54808;BME280;40708;50.364;7.550;2023-01-26T00:22:34;101388.81;;;0.39;100.00
54808;BME280;40708;50.364;7.550;2023-01-26T00:25:00;101374.25;;;0.42;100.00
54808;BME280;40708;50.364;7.550;2023-01-26T00:27:25;101369.66;;;0.38;100.00
54808;BME280;40708;50.364;7.550;2023-01-26T00:29:50;101374.88;;;0.38;100.00
54808;BME280;40708;50.364;7.550;2023-01-26T00:32:15;101374.72;;;0.35;100.00
54808;BME280;40708;50.364;7.550;2023-01-26T00:34:41;101374.56;;;0.32;100.00
54808;BME280;40708;50.364;7.550;2023-01-26T00:37:06;101366.63;;;0.31;100.00
54808;BME280;40708;50.364;7.550;2023-01-26T00:39:31;101367.47;;;0.30;100.00
54808;BME280;40708;50.364;7.550;2023-01-26T00:41:57;101355.38;;;0.32;100.00
54808;BME280;40708;50.364;7.550;2023-01-26T00:44:31;101354.41;;;0.30;100.00
54808;BME280;40708;50.364;7.550;2023-01-26T00:46:57;101356.50;;;0.21;100.00
54808;BME280;40708;50.364;7.550;2023-01-26T00:49:22;101356.25;;;0.16;100.00
54808;BME280;40708;50.364;7.550;2023-01-26T00:51:47;101350.94;;;0.15;100.00
54808;BME280;40708;50.364;7.550;2023-01-26T00:54:13;101352.25;;;0.23;100.00
54808;BME280;40708;50.364;7.550;2023-01-26T00:56:38;101345.25;;;0.22;100.00
54808;BME280;40708;50.364;7.550;2023-01-26T00:59:03;101342.78;;;0.25;100.00
54808;BME280;40708;50.364;7.550;2023-01-26T01:01:30;101336.75;;;0.26;100.00
54808;BME280;40708;50.364;7.550;2023-01-26T01:03:55;101347.13;;;0.24;100.00
54808;BME280;40708;50.364;7.550;2023-01-26T01:06:21;101342.16;;;0.29;100.00
54808;BME280;40708;50.364;7.550;2023-01-26T01:08:46;101333.97;;;0.23;100.00
54808;BME280;40708;50.364;7.550;2023-01-26T01:11:12;101336.13;;;0.30;100.00
54808;BME280;40708;50.364;7.550;2023-01-26T01:13:38;101331.97;;;0.33;100.00
54808;BME280;40708;50.364;7.550;2023-01-26T01:16:05;101339.00;;;0.34;100.00
54808;BME280;40708;50.364;7.550;2023-01-26T01:18:31;101341.25;;;0.28;100.00
54808;BME280;40708;50.364;7.550;2023-01-26T01:20:56;101337.13;;;0.32;100.00
54808;BME280;40708;50.364;7.550;2023-01-26T01:23:21;101324.88;;;0.31;100.00
54808;BME280;40708;50.364;7.550;2023-01-26T01:25:55;101331.97;;;0.33;100.00
54808;BME280;40708;50.364;7.550;2023-01-26T01:28:21;101328.31;;;0.30;100.00
54808;BME280;40708;50.364;7.550;2023-01-26T01:30:46;101332.97;;;0.35;100.00
54808;BME280;40708;50.364;7.550;2023-01-26T01:33:11;101330.34;;;0.35;100.00
54808;BME280;40708;50.364;7.550;2023-01-26T01:35:37;101319.09;;;0.36;100.00
54808;BME280;40708;50.364;7.550;2023-01-26T01:38:02;101317.63;;;0.41;100.00
54808;BME280;40708;50.364;7.550;2023-01-26T01:40:27;101326.13;;;0.37;100.00
54808;BME280;40708;50.364;7.550;2023-01-26T01:42:53;101324.13;;;0.33;100.00
54808;BME280;40708;50.364;7.550;2023-01-26T01:45:39;101320.72;;;0.34;100.00
54808;BME280;40708;50.364;7.550;2023-01-26T01:48:11;101317.22;;;0.34;100.00
54808;BME280;40708;50.364;7.550;2023-01-26T01:50:39;101310.03;;;0.30;100.00
54808;BME280;40708;50.364;7.550;2023-01-26T01:53:07;101314.44;;;0.31;100.00
54808;BME280;40708;50.364;7.550;2023-01-26T01:55:35;101303.50;;;0.22;100.00
54808;BME280;40708;50.364;7.550;2023-01-26T01:58:02;101315.25;;;0.30;100.00
54808;BME280;40708;50.364;7.550;2023-01-26T02:00:29;101319.22;;;0.23;100.00
54808;BME280;40708;50.364;7.550;2023-01-26T02:02:57;101303.59;;;0.09;100.00
54808;BME280;40708;50.364;7.550;2023-01-26T02:05:49;101303.06;;;0.14;100.00
54808;BME280;40708;50.364;7.550;2023-01-26T02:08:17;101306.00;;;0.20;100.00
54808;BME280;40708;50.364;7.550;2023-01-26T02:10:48;101295.31;;;0.16;100.00
54808;BME280;40708;50.364;7.550;2023-01-26T02:13:17;101291.88;;;0.17;100.00
54808;BME280;40708;50.364;7.550;2023-01-26T02:15:43;101284.53;;;0.10;100.00
54808;BME280;40708;50.364;7.550;2023-01-26T02:18:08;101287.31;;;0.13;100.00
54808;BME280;40708;50.364;7.550;2023-01-26T02:20:45;101279.69;;;0.16;100.00
54808;BME280;40708;50.364;7.550;2023-01-26T02:26:28;101271.19;;;0.20;100.00
54808;BME280;40708;50.364;7.550;2023-01-26T02:28:54;101271.09;;;0.18;100.00
54808;BME280;40708;50.364;7.550;2023-01-26T02:31:21;101272.41;;;0.10;100.00
54808;BME280;40708;50.364;7.550;2023-01-26T02:33:46;101265.94;;;0.04;100.00
54808;BME280;40708;50.364;7.550;2023-01-26T02:36:25;101267.44;;;0.15;100.00
54808;BME280;40708;50.364;7.550;2023-01-26T02:41:34;101260.41;;;0.14;100.00
54808;BME280;40708;50.364;7.550;2023-01-26T02:44:18;101256.66;;;0.09;100.00
54808;BME280;40708;50.364;7.550;2023-01-26T02:46:44;101262.22;;;0.15;100.00
54808;BME280;40708;50.364;7.550;2023-01-26T02:49:09;101256.78;;;-0.05;100.00
54808;BME280;40708;50.364;7.550;2023-01-26T02:51:53;101251.34;;;-0.09;100.00
54808;BME280;40708;50.364;7.550;2023-01-26T02:54:18;101243.69;;;-0.06;100.00
54808;BME280;40708;50.364;7.550;2023-01-26T02:57:02;101248.06;;;-0.05;100.00
54808;BME280;40708;50.364;7.550;2023-01-26T02:59:27;101249.06;;;-0.03;100.00
54808;BME280;40708;50.364;7.550;2023-01-26T03:01:55;101248.50;;;0.03;100.00
54808;BME280;40708;50.364;7.550;2023-01-26T03:04:21;101247.69;;;0.04;100.00
54808;BME280;40708;50.364;7.550;2023-01-26T03:06:46;101242.38;;;0.02;100.00
54808;BME280;40708;50.364;7.550;2023-01-26T03:09:11;101242.00;;;0.11;100.00
54808;BME280;40708;50.364;7.550;2023-01-26T03:11:37;101242.63;;;0.07;100.00
54808;BME280;40708;50.364;7.550;2023-01-26T03:14:12;101239.06;;;0.05;100.00
54808;BME280;40708;50.364;7.550;2023-01-26T03:16:38;101235.84;;;-0.06;100.00
54808;BME280;40708;50.364;7.550;2023-01-26T03:19:04;101231.63;;;-0.04;100.00
54808;BME280;40708;50.364;7.550;2023-01-26T03:21:48;101235.13;;;-0.04;100.00
54808;BME280;40708;50.364;7.550;2023-01-26T03:24:32;101231.38;;;-0.09;100.00
54808;BME280;40708;50.364;7.550;2023-01-26T03:27:16;101233.25;;;-0.06;100.00
54808;BME280;40708;50.364;7.550;2023-01-26T03:29:51;101235.13;;;-0.04;100.00
54808;BME280;40708;50.364;7.550;2023-01-26T03:32:17;101236.03;;;-0.03;100.00
54808;BME280;40708;50.364;7.550;2023-01-26T03:34:43;101234.03;;;-0.07;100.00
54808;BME280;40708;50.364;7.550;2023-01-26T03:37:08;101233.69;;;-0.13;100.00
54808;BME280;40708;50.364;7.550;2023-01-26T03:39:33;101225.25;;;-0.09;100.00
54808;BME280;40708;50.364;7.550;2023-01-26T03:42:17;101227.19;;;-0.05;100.00
54808;BME280;40708;50.364;7.550;2023-01-26T03:45:01;101223.06;;;-0.02;100.00
54808;BME280;40708;50.364;7.550;2023-01-26T03:47:45;101228.69;;;0.06;100.00
54808;BME280;40708;50.364;7.550;2023-01-26T03:50:29;101224.19;;;0.04;100.00
54808;BME280;40708;50.364;7.550;2023-01-26T03:53:18;101229.34;;;0.02;100.00
54808;BME280;40708;50.364;7.550;2023-01-26T03:56:03;101211.31;;;0.07;100.00
54808;BME280;40708;50.364;7.550;2023-01-26T03:58:53;101210.25;;;0.03;100.00
54808;BME280;40708;50.364;7.550;2023-01-26T04:01:24;101209.38;;;0.03;100.00
54808;BME280;40708;50.364;7.550;2023-01-26T04:03:54;101211.88;;;0.01;100.00
54808;BME280;40708;50.364;7.550;2023-01-26T04:06:40;101204.91;;;0.00;100.00
54808;BME280;40708;50.364;7.550;2023-01-26T04:09:24;101209.59;;;-0.09;100.00
54808;BME280;40708;50.364;7.550;2023-01-26T04:11:50;101207.91;;;-0.09;100.00
54808;BME280;40708;50.364;7.550;2023-01-26T04:14:15;101209.50;;;-0.11;100.00
54808;BME280;40708;50.364;7.550;2023-01-26T04:17:01;101208.75;;;-0.08;100.00
54808;BME280;40708;50.364;7.550;2023-01-26T04:19:45;101198.25;;;-0.10;100.00
54808;BME280;40708;50.364;7.550;2023-01-26T04:22:29;101206.75;;;-0.14;100.00
54808;BME280;40708;50.364;7.550;2023-01-26T04:24:54;101206.81;;;-0.12;100.00
54808;BME280;40708;50.364;7.550;2023-01-26T04:27:21;101205.47;;;-0.06;100.00
54808;BME280;40708;50.364;7.550;2023-01-26T04:29:47;101198.50;;;-0.05;100.00
54808;BME280;40708;50.364;7.550;2023-01-26T04:32:12;101203.81;;;-0.20;100.00
54808;BME280;40708;50.364;7.550;2023-01-26T04:34:37;101209.84;;;-0.05;100.00
54808;BME280;40708;50.364;7.550;2023-01-26T04:37:02;101200.13;;;-0.07;100.00
54808;BME280;40708;50.364;7.550;2023-01-26T04:39:28;101200.88;;;-0.10;100.00
54808;BME280;40708;50.364;7.550;2023-01-26T04:41:53;101202.56;;;-0.10;100.00
54808;BME280;40708;50.364;7.550;2023-01-26T04:44:18;101202.91;;;-0.04;100.00
54808;BME280;40708;50.364;7.550;2023-01-26T04:46:44;101204.06;;;0.01;100.00
54808;BME280;40708;50.364;7.550;2023-01-26T04:49:11;101204.28;;;-0.11;100.00
54808;BME280;40708;50.364;7.550;2023-01-26T04:51:36;101207.16;;;-0.06;100.00
54808;BME280;40708;50.364;7.550;2023-01-26T04:54:02;101213.97;;;-0.08;100.00
54808;BME280;40708;50.364;7.550;2023-01-26T04:56:29;101205.91;;;-0.13;100.00
54808;BME280;40708;50.364;7.550;2023-01-26T04:58:56;101206.75;;;-0.14;100.00
54808;BME280;40708;50.364;7.550;2023-01-26T05:01:22;101201.38;;;-0.17;100.00
54808;BME280;40708;50.364;7.550;2023-01-26T05:03:47;101202.50;;;-0.12;100.00
54808;BME280;40708;50.364;7.550;2023-01-26T05:06:13;101186.59;;;-0.16;100.00
54808;BME280;40708;50.364;7.550;2023-01-26T05:08:38;101188.81;;;-0.08;100.00
54808;BME280;40708;50.364;7.550;2023-01-26T05:11:04;101195.59;;;-0.11;100.00
54808;BME280;40708;50.364;7.550;2023-01-26T05:13:29;101187.50;;;-0.16;100.00
54808;BME280;40708;50.364;7.550;2023-01-26T05:15:55;101188.41;;;-0.15;100.00
54808;BME280;40708;50.364;7.550;2023-01-26T05:18:20;101186.50;;;-0.18;100.00
54808;BME280;40708;50.364;7.550;2023-01-26T05:20:46;101191.22;;;-0.27;100.00
54808;BME280;40708;50.364;7.550;2023-01-26T05:23:11;101187.00;;;-0.25;100.00
54808;BME280;40708;50.364;7.550;2023-01-26T05:25:37;101183.84;;;-0.19;100.00
54808;BME280;40708;50.364;7.550;2023-01-26T05:28:02;101191.56;;;-0.21;100.00
54808;BME280;40708;50.364;7.550;2023-01-26T05:30:27;101185.63;;;-0.18;100.00
54808;BME280;40708;50.364;7.550;2023-01-26T05:32:53;101183.66;;;-0.22;100.00
54808;BME280;40708;50.364;7.550;2023-01-26T05:35:18;101186.50;;;-0.18;100.00
54808;BME280;40708;50.364;7.550;2023-01-26T05:37:44;101190.03;;;-0.17;100.00
54808;BME280;40708;50.364;7.550;2023-01-26T05:40:11;101185.53;;;-0.20;100.00
54808;BME280;40708;50.364;7.550;2023-01-26T05:42:37;101195.94;;;-0.36;100.00
54808;BME280;40708;50.364;7.550;2023-01-26T05:45:03;101190.72;;;-0.36;100.00
54808;BME280;40708;50.364;7.550;2023-01-26T05:47:28;101188.72;;;-0.25;100.00
54808;BME280;40708;50.364;7.550;2023-01-26T05:49:54;101185.94;;;-0.28;100.00
54808;BME280;40708;50.364;7.550;2023-01-26T05:52:20;101184.84;;;-0.32;100.00
54808;BME280;40708;50.364;7.550;2023-01-26T05:54:46;101187.94;;;-0.39;100.00
54808;BME280;40708;50.364;7.550;2023-01-26T05:57:11;101185.94;;;-0.28;100.00
54808;BME280;40708;50.364;7.550;2023-01-26T05:59:37;101190.56;;;-0.39;100.00
54808;BME280;40708;50.364;7.550;2023-01-26T06:02:03;101184.69;;;-0.35;100.00
54808;BME280;40708;50.364;7.550;2023-01-26T06:04:28;101188.91;;;-0.37;100.00
54808;BME280;40708;50.364;7.550;2023-01-26T06:06:55;101181.34;;;-0.32;100.00
54808;BME280;40708;50.364;7.550;2023-01-26T06:09:21;101187.94;;;-0.39;100.00
54808;BME280;40708;50.364;7.550;2023-01-26T06:11:46;101193.16;;;-0.39;100.00
54808;BME280;40708;50.364;7.550;2023-01-26T06:14:12;101190.28;;;-0.43;100.00
54808;BME280;40708;50.364;7.550;2023-01-26T06:16:37;101196.69;;;-0.38;100.00
54808;BME280;40708;50.364;7.550;2023-01-26T06:19:03;101193.34;;;-0.36;100.00
54808;BME280;40708;50.364;7.550;2023-01-26T06:21:30;101198.38;;;-0.39;100.00
54808;BME280;40708;50.364;7.550;2023-01-26T06:23:55;101200.31;;;-0.35;100.00
54808;BME280;40708;50.364;7.550;2023-01-26T06:26:21;101204.31;;;-0.41;100.00
54808;BME280;40708;50.364;7.550;2023-01-26T06:28:48;101201.06;;;-0.37;100.00
54808;BME280;40708;50.364;7.550;2023-01-26T06:31:13;101195.84;;;-0.37;100.00
54808;BME280;40708;50.364;7.550;2023-01-26T06:33:39;101207.34;;;-0.34;100.00
54808;BME280;40708;50.364;7.550;2023-01-26T06:36:07;101207.97;;;-0.38;100.00
54808;BME280;40708;50.364;7.550;2023-01-26T06:38:34;101205.03;;;-0.44;100.00
54808;BME280;40708;50.364;7.550;2023-01-26T06:41:06;101206.94;;;-0.41;100.00
54808;BME280;40708;50.364;7.550;2023-01-26T06:43:33;101207.09;;;-0.38;100.00
54808;BME280;40708;50.364;7.550;2023-01-26T06:45:59;101211.25;;;-0.42;100.00
54808;BME280;40708;50.364;7.550;2023-01-26T06:48:26;101206.44;;;-0.34;100.00
54808;BME280;40708;50.364;7.550;2023-01-26T06:50:56;101205.38;;;-0.38;100.00
54808;BME280;40708;50.364;7.550;2023-01-26T06:53:36;101208.88;;;-0.37;100.00
54808;BME280;40708;50.364;7.550;2023-01-26T06:56:01;101209.84;;;-0.35;100.00
54808;BME280;40708;50.364;7.550;2023-01-26T06:58:27;101218.69;;;-0.33;100.00
54808;BME280;40708;50.364;7.550;2023-01-26T07:00:54;101218.50;;;-0.36;100.00
54808;BME280;40708;50.364;7.550;2023-01-26T07:03:20;101220.38;;;-0.34;100.00
54808;BME280;40708;50.364;7.550;2023-01-26T07:05:45;101217.13;;;-0.30;100.00
54808;BME280;40708;50.364;7.550;2023-01-26T07:08:10;101217.94;;;-0.31;100.00
54808;BME280;40708;50.364;7.550;2023-01-26T07:10:36;101223.41;;;-0.26;100.00
54808;BME280;40708;50.364;7.550;2023-01-26T07:13:03;101213.94;;;-0.24;100.00
54808;BME280;40708;50.364;7.550;2023-01-26T07:15:29;101214.97;;;-0.22;100.00
54808;BME280;40708;50.364;7.550;2023-01-26T07:17:55;101219.34;;;-0.21;100.00
54808;BME280;40708;50.364;7.550;2023-01-26T07:20:21;101222.06;;;-0.20;100.00
54808;BME280;40708;50.364;7.550;2023-01-26T07:22:47;101217.97;;;-0.15;100.00
54808;BME280;40708;50.364;7.550;2023-01-26T07:25:12;101220.59;;;-0.15;100.00
54808;BME280;40708;50.364;7.550;2023-01-26T07:27:37;101219.69;;;-0.15;100.00
54808;BME280;40708;50.364;7.550;2023-01-26T07:30:03;101229.16;;;-0.17;100.00
54808;BME280;40708;50.364;7.550;2023-01-26T07:32:29;101235.69;;;-0.09;100.00
54808;BME280;40708;50.364;7.550;2023-01-26T07:34:54;101235.91;;;-0.21;100.00
54808;BME280;40708;50.364;7.550;2023-01-26T07:37:19;101240.06;;;-0.08;100.00
54808;BME280;40708;50.364;7.550;2023-01-26T07:39:44;101243.00;;;-0.18;100.00
54808;BME280;40708;50.364;7.550;2023-01-26T07:42:10;101247.97;;;-0.23;100.00
54808;BME280;40708;50.364;7.550;2023-01-26T07:44:35;101245.78;;;-0.30;100.00
54808;BME280;40708;50.364;7.550;2023-01-26T07:47:00;101249.59;;;-0.25;100.00
54808;BME280;40708;50.364;7.550;2023-01-26T07:49:26;101259.47;;;-0.19;100.00
54808;BME280;40708;50.364;7.550;2023-01-26T07:51:51;101263.06;;;-0.32;100.00
54808;BME280;40708;50.364;7.550;2023-01-26T07:54:18;101266.66;;;-0.30;100.00
54808;BME280;40708;50.364;7.550;2023-01-26T07:56:45;101267.31;;;-0.34;100.00
54808;BME280;40708;50.364;7.550;2023-01-26T07:59:10;101278.91;;;-0.43;100.00
54808;BME280;40708;50.364;7.550;2023-01-26T08:01:36;101283.25;;;-0.44;100.00
54808;BME280;40708;50.364;7.550;2023-01-26T08:04:02;101290.16;;;-0.44;100.00
54808;BME280;40708;50.364;7.550;2023-01-26T08:06:27;101281.69;;;-0.40;100.00
54808;BME280;40708;50.364;7.550;2023-01-26T08:08:52;101290.25;;;-0.43;100.00
54808;BME280;40708;50.364;7.550;2023-01-26T08:11:20;101287.94;;;-0.53;100.00
54808;BME280;40708;50.364;7.550;2023-01-26T08:13:48;101293.31;;;-0.50;100.00
54808;BME280;40708;50.364;7.550;2023-01-26T08:16:13;101301.41;;;-0.45;100.00
54808;BME280;40708;50.364;7.550;2023-01-26T08:18:42;101307.69;;;-0.56;100.00
54808;BME280;40708;50.364;7.550;2023-01-26T08:21:09;101304.00;;;-0.45;100.00
54808;BME280;40708;50.364;7.550;2023-01-26T08:23:34;101299.75;;;-0.43;100.00
54808;BME280;40708;50.364;7.550;2023-01-26T08:26:01;101308.31;;;-0.46;100.00
54808;BME280;40708;50.364;7.550;2023-01-26T08:28:27;101313.28;;;-0.36;100.00
54808;BME280;40708;50.364;7.550;2023-01-26T08:30:52;101306.25;;;-0.51;100.00
54808;BME280;40708;50.364;7.550;2023-01-26T08:33:17;101310.56;;;-0.37;100.00
54808;BME280;40708;50.364;7.550;2023-01-26T08:35:43;101314.84;;;-0.23;100.00
54808;BME280;40708;50.364;7.550;2023-01-26T08:38:08;101311.28;;;-0.25;100.00
54808;BME280;40708;50.364;7.550;2023-01-26T08:40:33;101312.91;;;-0.27;100.00
54808;BME280;40708;50.364;7.550;2023-01-26T08:43:00;101311.34;;;-0.24;100.00
54808;BME280;40708;50.364;7.550;2023-01-26T08:45:26;101310.97;;;-0.15;100.00
54808;BME280;40708;50.364;7.550;2023-01-26T08:47:51;101317.88;;;-0.16;100.00
54808;BME280;40708;50.364;7.550;2023-01-26T08:50:17;101307.09;;;-0.07;100.00
54808;BME280;40708;50.364;7.550;2023-01-26T08:52:43;101314.19;;;-0.05;100.00
54808;BME280;40708;50.364;7.550;2023-01-26T08:55:08;101309.94;;;-0.03;100.00
54808;BME280;40708;50.364;7.550;2023-01-26T08:57:33;101308.03;;;0.10;100.00
54808;BME280;40708;50.364;7.550;2023-01-26T08:59:59;101313.19;;;0.08;100.00
54808;BME280;40708;50.364;7.550;2023-01-26T09:02:24;101309.56;;;0.06;100.00
54808;BME280;40708;50.364;7.550;2023-01-26T09:04:49;101313.25;;;0.10;100.00
54808;BME280;40708;50.364;7.550;2023-01-26T09:07:14;101314.50;;;0.16;100.00
54808;BME280;40708;50.364;7.550;2023-01-26T09:09:40;101319.97;;;0.21;100.00
54808;BME280;40708;50.364;7.550;2023-01-26T09:12:05;101313.22;;;0.24;100.00
54808;BME280;40708;50.364;7.550;2023-01-26T09:14:30;101318.88;;;0.17;100.00
54808;BME280;40708;50.364;7.550;2023-01-26T09:16:56;101313.41;;;0.13;100.00
54808;BME280;40708;50.364;7.550;2023-01-26T09:19:21;101314.31;;;0.13;100.00
54808;BME280;40708;50.364;7.550;2023-01-26T09:21:51;101314.91;;;0.24;100.00
54808;BME280;40708;50.364;7.550;2023-01-26T09:24:16;101313.97;;;0.07;100.00
54808;BME280;40708;50.364;7.550;2023-01-26T09:26:41;101313.59;;;0.16;100.00
54808;BME280;40708;50.364;7.550;2023-01-26T09:29:07;101321.78;;;0.22;100.00
54808;BME280;40708;50.364;7.550;2023-01-26T09:31:32;101328.88;;;0.24;100.00
54808;BME280;40708;50.364;7.550;2023-01-26T09:33:57;101326.91;;;0.36;100.00
54808;BME280;40708;50.364;7.550;2023-01-26T09:36:22;101324.97;;;0.32;100.00
54808;BME280;40708;50.364;7.550;2023-01-26T09:38:48;101328.97;;;0.42;100.00
54808;BME280;40708;50.364;7.550;2023-01-26T09:44:18;101330.19;;;0.32;100.00
54808;BME280;40708;50.364;7.550;2023-01-26T09:46:59;101337.00;;;0.30;100.00
54808;BME280;40708;50.364;7.550;2023-01-26T09:49:58;101336.16;;;0.46;100.00
54808;BME280;40708;50.364;7.550;2023-01-26T09:52:28;101337.88;;;0.45;100.00
54808;BME280;40708;50.364;7.550;2023-01-26T09:54:58;101330.94;;;0.46;100.00
54808;BME280;40708;50.364;7.550;2023-01-26T09:57:31;101323.00;;;0.44;100.00
54808;BME280;40708;50.364;7.550;2023-01-26T10:03:02;101322.38;;;0.48;100.00
54808;BME280;40708;50.364;7.550;2023-01-26T10:05:34;101314.59;;;0.34;100.00
54808;BME280;40708;50.364;7.550;2023-01-26T10:08:01;101311.75;;;0.45;100.00
54808;BME280;40708;50.364;7.550;2023-01-26T10:10:31;101315.50;;;0.50;100.00
54808;BME280;40708;50.364;7.550;2023-01-26T10:12:59;101313.31;;;0.58;100.00
54808;BME280;40708;50.364;7.550;2023-01-26T10:15:33;101308.31;;;0.46;100.00
54808;BME280;40708;50.364;7.550;2023-01-26T10:18:06;101303.84;;;0.60;100.00
54808;BME280;40708;50.364;7.550;2023-01-26T10:20:35;101303.59;;;0.55;100.00
54808;BME280;40708;50.364;7.550;2023-01-26T10:23:05;101299.28;;;0.56;100.00
54808;BME280;40708;50.364;7.550;2023-01-26T10:25:35;101298.03;;;0.66;100.00
54808;BME280;40708;50.364;7.550;2023-01-26T10:28:11;101290.88;;;0.78;100.00
54808;BME280;40708;50.364;7.550;2023-01-26T10:30:39;101295.28;;;0.79;100.00
54808;BME280;40708;50.364;7.550;2023-01-26T10:33:24;101290.13;;;0.80;100.00
54808;BME280;40708;50.364;7.550;2023-01-26T10:35:50;101283.69;;;0.74;100.00
54808;BME280;40708;50.364;7.550;2023-01-26T10:40:51;101277.72;;;0.60;100.00
54808;BME280;40708;50.364;7.550;2023-01-26T10:43:17;101283.84;;;0.77;100.00
54808;BME280;40708;50.364;7.550;2023-01-26T10:45:44;101285.66;;;0.78;100.00
54808;BME280;40708;50.364;7.550;2023-01-26T10:48:17;101277.81;;;0.78;100.00
54808;BME280;40708;50.364;7.550;2023-01-26T10:50:44;101275.78;;;0.72;100.00
54808;BME280;40708;50.364;7.550;2023-01-26T10:53:28;101279.63;;;0.79;100.00
54808;BME280;40708;50.364;7.550;2023-01-26T11:01:05;101263.09;;;0.96;100.00
54808;BME280;40708;50.364;7.550;2023-01-26T11:03:37;101258.94;;;0.99;100.00
54808;BME280;40708;50.364;7.550;2023-01-26T11:06:13;101262.25;;;1.13;100.00
54808;BME280;40708;50.364;7.550;2023-01-26T11:08:40;101261.66;;;1.18;100.00
54808;BME280;40708;50.364;7.550;2023-01-26T11:11:06;101247.50;;;0.97;100.00
54808;BME280;40708;50.364;7.550;2023-01-26T11:13:35;101250.19;;;0.99;100.00
54808;BME280;40708;50.364;7.550;2023-01-26T11:16:11;101237.84;;;0.96;100.00
54808;BME280;40708;50.364;7.550;2023-01-26T11:18:58;101239.13;;;0.87;100.00
54808;BME280;40708;50.364;7.550;2023-01-26T11:21:29;101229.69;;;0.90;100.00
54808;BME280;40708;50.364;7.550;2023-01-26T11:24:08;101229.84;;;0.76;100.00
54808;BME280;40708;50.364;7.550;2023-01-26T11:32:03;101227.28;;;0.77;100.00
54808;BME280;40708;50.364;7.550;2023-01-26T11:34:49;101221.72;;;0.71;100.00
54808;BME280;40708;50.364;7.550;2023-01-26T11:37:47;101220.56;;;0.82;100.00
54808;BME280;40708;50.364;7.550;2023-01-26T11:46:07;101208.16;;;0.94;100.00
54808;BME280;40708;50.364;7.550;2023-01-26T11:54:33;101191.63;;;0.95;100.00
54808;BME280;40708;50.364;7.550;2023-01-26T11:57:12;101190.56;;;1.08;100.00
54808;BME280;40708;50.364;7.550;2023-01-26T11:59:49;101191.72;;;0.97;100.00
54808;BME280;40708;50.364;7.550;2023-01-26T12:02:35;101186.41;;;0.95;100.00
54808;BME280;40708;50.364;7.550;2023-01-26T12:05:10;101183.16;;;0.99;100.00
54808;BME280;40708;50.364;7.550;2023-01-26T12:10:23;101165.22;;;1.07;100.00
54808;BME280;40708;50.364;7.550;2023-01-26T12:12:57;101167.56;;;1.18;100.00
54808;BME280;40708;50.364;7.550;2023-01-26T12:15:27;101166.13;;;1.25;100.00
54808;BME280;40708;50.364;7.550;2023-01-26T12:18:14;101164.19;;;1.39;100.00
54808;BME280;40708;50.364;7.550;2023-01-26T12:20:49;101156.22;;;1.36;100.00
54808;BME280;40708;50.364;7.550;2023-01-26T12:23:30;101138.69;;;1.52;100.00
54808;BME280;40708;50.364;7.550;2023-01-26T12:26:02;101129.13;;;1.53;100.00
54808;BME280;40708;50.364;7.550;2023-01-26T12:28:34;101123.78;;;1.32;100.00
54808;BME280;40708;50.364;7.550;2023-01-26T12:33:42;101126.72;;;1.38;100.00
54808;BME280;40708;50.364;7.550;2023-01-26T12:36:40;101115.59;;;1.61;100.00
54808;BME280;40708;50.364;7.550;2023-01-26T12:39:11;101109.59;;;1.64;100.00
54808;BME280;40708;50.364;7.550;2023-01-26T12:42:00;101104.19;;;1.59;100.00
54808;BME280;40708;50.364;7.550;2023-01-26T12:47:43;101102.63;;;1.45;100.00
54808;BME280;40708;50.364;7.550;2023-01-26T12:52:56;101113.78;;;1.24;100.00
54808;BME280;40708;50.364;7.550;2023-01-26T12:58:04;101113.44;;;1.16;100.00
54808;BME280;40708;50.364;7.550;2023-01-26T13:00:34;101109.63;;;1.27;100.00
54808;BME280;40708;50.364;7.550;2023-01-26T13:03:14;101119.53;;;1.34;100.00
54808;BME280;40708;50.364;7.550;2023-01-26T13:05:58;101113.91;;;1.44;100.00
54808;BME280;40708;50.364;7.550;2023-01-26T13:14:35;101111.97;;;1.40;100.00
54808;BME280;40708;50.364;7.550;2023-01-26T13:28:01;101105.13;;;1.25;100.00
54808;BME280;40708;50.364;7.550;2023-01-26T13:30:32;101102.56;;;1.44;100.00
54808;BME280;40708;50.364;7.550;2023-01-26T13:35:30;101106.00;;;1.43;100.00
54808;BME280;40708;50.364;7.550;2023-01-26T13:40:48;101106.16;;;1.46;100.00
54808;BME280;40708;50.364;7.550;2023-01-26T13:43:16;101104.53;;;1.30;100.00
54808;BME280;40708;50.364;7.550;2023-01-26T13:48:49;101106.81;;;1.42;100.00
54808;BME280;40708;50.364;7.550;2023-01-26T13:51:17;101106.69;;;1.58;100.00
54808;BME280;40708;50.364;7.550;2023-01-26T13:53:47;101108.78;;;1.65;100.00
54808;BME280;40708;50.364;7.550;2023-01-26T13:56:27;101106.47;;;1.71;100.00
54808;BME280;40708;50.364;7.550;2023-01-26T13:58:53;101100.09;;;1.66;100.00
54808;BME280;40708;50.364;7.550;2023-01-26T14:01:26;101103.63;;;1.66;100.00
54808;BME280;40708;50.364;7.550;2023-01-26T14:04:04;101108.34;;;1.73;100.00
54808;BME280;40708;50.364;7.550;2023-01-26T14:06:32;101103.25;;;1.76;100.00
54808;BME280;40708;50.364;7.550;2023-01-26T14:08:58;101113.47;;;1.72;100.00
54808;BME280;40708;50.364;7.550;2023-01-26T14:11:25;101110.81;;;1.70;100.00